»·PEaware :: JBU242 KPIH-KSDL

JBU242 :: KPIH-KSDL

FLIGHT INFORMATION

Flight Status: Arrived
Operator:
JetBlue Airways
More flights by this operator :: More flights under this callsign
Pilot: Sanjiv S. (4490)
Aircraft: AIRBUS A320
(A320)
More flights by this aircraft type
Origin: KPIH Pocatello Regl
United States
Destination: KSDL Scottsdale
United States
More flights between these airports :: More routes between these airports
Route: +OGD BCE KIDDR DSERT2
File this flight plan on PilotEdge
Remarks:
Altitude:
(Current/Filed)
37,000ft
Speed:
(Current/Filed)
450kts
Departed: 11-Dec-17 09:12 AM
Arrived: 11-Dec-17 10:38 AM
Distance/Time
Traveled:
558nm/1:25
Distance/Time
To Go:
Arrived

Flight Plot

Page will automatically refresh every two minutes.

Flight plan parsing failed; only flown route is shown


Map Options




Map Legend


Flown Route
Filed Route
Departure Airport
Arrival Airport
Navaid (VOR, NDB)
Fix

Horizontal Profiles

Position Reports

Time Latitude Longitude Heading Altitude Ground
Speed
11-Dec-17 08:45 42.906380 -112.589633 134 4457ft 0kts
11-Dec-17 08:47 42.906380 -112.589633 134 4457ft 0kts
11-Dec-17 08:48 42.906380 -112.589633 134 4457ft 0kts
11-Dec-17 08:48 42.906380 -112.589633 134 4457ft 0kts
11-Dec-17 08:49 42.906380 -112.589633 134 4457ft 0kts
11-Dec-17 08:51 42.906380 -112.589633 134 4457ft 0kts
11-Dec-17 08:51 42.906380 -112.589633 134 4457ft 0kts
11-Dec-17 08:52 42.906380 -112.589633 134 4457ft 0kts
11-Dec-17 08:53 42.906380 -112.589633 134 4457ft 0kts
11-Dec-17 08:54 42.906380 -112.589633 134 4457ft 0kts
11-Dec-17 08:55 42.906380 -112.589633 134 4457ft 0kts
11-Dec-17 08:56 42.906380 -112.589633 134 4457ft 0kts
11-Dec-17 08:57 42.906380 -112.589633 134 4457ft 0kts
11-Dec-17 08:58 42.906380 -112.589633 134 4457ft 0kts
11-Dec-17 08:59 42.906380 -112.589633 134 4457ft 0kts
11-Dec-17 09:00 42.906380 -112.589633 134 4457ft 0kts
11-Dec-17 09:01 42.906380 -112.589633 134 4457ft 0kts
11-Dec-17 09:02 42.906380 -112.589633 134 4457ft 0kts
11-Dec-17 09:03 42.906380 -112.589633 134 4457ft 0kts
11-Dec-17 09:04 42.906380 -112.589633 134 4457ft 0kts
11-Dec-17 09:05 42.906380 -112.589633 134 4457ft 0kts
11-Dec-17 09:06 42.906384 -112.589637 135 4457ft 1kts
11-Dec-17 09:07 42.906786 -112.590184 134 4457ft 2kts
11-Dec-17 09:08 42.907033 -112.590727 64 4457ft 2kts
11-Dec-17 09:09 42.906978 -112.590834 45 4457ft 0kts
11-Dec-17 09:10 42.906978 -112.590834 45 4457ft 0kts
11-Dec-17 09:11 42.906978 -112.590834 45 4457ft 0kts
11-Dec-17 09:12 42.906978 -112.590834 45 4457ft 0kts
11-Dec-17 09:13 42.906978 -112.590834 45 4457ft 0kts
11-Dec-17 09:14 42.908480 -112.588770 45 4457ft 14kts
11-Dec-17 09:15 42.912146 -112.583776 46 4457ft 22kts
11-Dec-17 09:16 42.917268 -112.576884 40 4457ft 21kts
11-Dec-17 09:17 42.916734 -112.580363 224 4457ft 70kts
11-Dec-17 09:18 42.884411 -112.622185 208 6531ft 188kts
11-Dec-17 09:19 42.831337 -112.597453 156 8909ft 260kts
11-Dec-17 09:20 42.754455 -112.571791 166 11612ft 310kts
11-Dec-17 09:21 42.663657 -112.542984 166 14105ft 349kts
11-Dec-17 09:22 42.567905 -112.512685 166 16826ft 365kts
11-Dec-17 09:23 42.467487 -112.481067 166 19266ft 380kts
11-Dec-17 09:24 42.363409 -112.448429 166 21445ft 395kts
11-Dec-17 09:25 42.255848 -112.414816 166 23405ft 408kts
11-Dec-17 09:26 42.144484 -112.380139 166 25196ft 421kts
11-Dec-17 09:27 42.034311 -112.345955 166 26784ft 432kts
11-Dec-17 09:28 41.917978 -112.309993 166 28292ft 443kts
11-Dec-17 09:29 41.827673 -112.282171 166 29339ft 451kts
11-Dec-17 09:30 41.706199 -112.244871 166 30598ft 460kts
11-Dec-17 09:31 41.581726 -112.206801 166 31747ft 469kts
11-Dec-17 09:32 41.455701 -112.168409 166 32887ft 474kts
11-Dec-17 09:33 41.330586 -112.130431 166 34164ft 472kts
11-Dec-17 09:34 41.213209 -112.099729 178 35225ft 472kts
11-Dec-17 09:35 41.084031 -112.106810 182 36290ft 472kts
11-Dec-17 09:36 40.956781 -112.114551 181 37241ft 472kts
11-Dec-17 09:37 40.840802 -112.121580 181 37594ft 470kts
11-Dec-17 09:38 40.714701 -112.129196 181 37581ft 471kts
11-Dec-17 09:39 40.587742 -112.136840 181 37413ft 472kts
11-Dec-17 09:40 40.464920 -112.144207 181 37043ft 471kts
11-Dec-17 09:41 40.336520 -112.151874 181 37460ft 469kts
11-Dec-17 09:42 40.209064 -112.159467 181 37506ft 471kts
11-Dec-17 09:43 40.079364 -112.167156 181 37491ft 471kts
11-Dec-17 09:44 39.950712 -112.174755 181 37536ft 470kts
11-Dec-17 09:45 39.826597 -112.182059 181 37729ft 470kts
11-Dec-17 09:46 39.698153 -112.189592 181 37708ft 471kts
11-Dec-17 09:47 39.569870 -112.197086 181 37706ft 470kts
11-Dec-17 09:48 39.440097 -112.204639 181 37706ft 471kts
11-Dec-17 09:50 39.311419 -112.212102 181 37709ft 471kts
11-Dec-17 09:51 39.182462 -112.219551 181 37713ft 471kts
11-Dec-17 09:52 39.053452 -112.226977 181 37712ft 471kts
11-Dec-17 09:53 38.924042 -112.234398 180 37740ft 469kts
11-Dec-17 09:54 38.804994 -112.241198 180 37741ft 464kts
11-Dec-17 09:55 38.678722 -112.248393 180 37677ft 461kts
11-Dec-17 09:56 38.553080 -112.255529 180 37627ft 460kts
11-Dec-17 09:57 38.427533 -112.262630 180 37639ft 460kts
11-Dec-17 09:58 38.302485 -112.269680 180 37650ft 461kts
11-Dec-17 09:59 38.176381 -112.276763 180 37657ft 462kts
11-Dec-17 10:00 38.050519 -112.283807 180 37662ft 462kts
11-Dec-17 10:01 37.925185 -112.290792 180 37663ft 463kts
11-Dec-17 10:02 37.804024 -112.297503 179 37662ft 462kts
11-Dec-17 10:03 37.677872 -112.304524 180 37657ft 462kts
11-Dec-17 10:04 37.554218 -112.312186 180 37653ft 462kts
11-Dec-17 10:05 37.429694 -112.319790 180 37654ft 463kts
11-Dec-17 10:06 37.305313 -112.327358 180 37655ft 462kts
11-Dec-17 10:07 37.181270 -112.334879 180 37654ft 463kts
11-Dec-17 10:08 37.055389 -112.342487 181 37626ft 463kts
11-Dec-17 10:09 36.928926 -112.350108 183 37634ft 463kts
11-Dec-17 10:10 36.808512 -112.357337 183 37629ft 461kts
11-Dec-17 10:11 36.685061 -112.364732 183 37601ft 460kts
11-Dec-17 10:12 36.560601 -112.372164 183 37591ft 460kts
11-Dec-17 10:13 36.437881 -112.379468 183 37596ft 460kts
11-Dec-17 10:14 36.318829 -112.386531 183 37597ft 460kts
11-Dec-17 10:15 36.196756 -112.393751 183 37601ft 460kts
11-Dec-17 10:16 36.075918 -112.400887 183 37605ft 461kts
11-Dec-17 10:17 35.968263 -112.407202 183 37606ft 461kts
11-Dec-17 10:18 35.855053 -112.413840 183 37604ft 460kts
11-Dec-17 10:19 35.731838 -112.421039 183 36911ft 458kts
11-Dec-17 10:20 35.607428 -112.428299 183 33642ft 461kts
11-Dec-17 10:21 35.487010 -112.435261 182 30225ft 443kts
11-Dec-17 10:22 35.367286 -112.442214 182 29544ft 449kts
11-Dec-17 10:23 35.244257 -112.449334 182 29538ft 453kts
11-Dec-17 10:24 35.120765 -112.456434 182 29533ft 452kts
11-Dec-17 10:25 34.997173 -112.461802 172 29532ft 453kts
11-Dec-17 10:26 34.897463 -112.391840 126 29522ft 430kts
11-Dec-17 10:27 34.841069 -112.300513 125 29518ft 425kts
11-Dec-17 10:28 34.771842 -112.189336 125 29520ft 428kts
11-Dec-17 10:29 34.703741 -112.080169 125 28168ft 417kts
11-Dec-17 10:30 34.636603 -111.972916 125 26056ft 404kts
11-Dec-17 10:31 34.571855 -111.869769 126 23953ft 392kts
11-Dec-17 10:32 34.509171 -111.770201 126 21843ft 380kts
11-Dec-17 10:33 34.439538 -111.683749 158 19720ft 373kts
11-Dec-17 10:34 34.340953 -111.697448 191 17661ft 369kts
11-Dec-17 10:35 34.246302 -111.726000 191 15650ft 358kts
11-Dec-17 10:36 34.153021 -111.754007 190 15098ft 355kts
11-Dec-17 10:37 34.060687 -111.780343 190 13077ft 349kts
11-Dec-17 10:38 33.969241 -111.806184 191 10750ft 347kts
11-Dec-17 10:39 33.884122 -111.829538 191 8406ft 307kts
11-Dec-17 10:40 33.808434 -111.838641 170 6818ft 273kts
11-Dec-17 10:41 33.741303 -111.829508 179 6026ft 241kts
11-Dec-17 10:42 33.682174 -111.835684 208 4882ft 203kts
11-Dec-17 10:43 33.645695 -111.884017 225 2105ft 189kts
11-Dec-17 10:44 33.620849 -111.912888 223 1469ft 21kts
11-Dec-17 10:45 33.619434 -111.916713 312 1462ft 6kts

Navigation Log

Ident Type
Flight plan parsing failed, navigation log unavailable